Time;durP1;ratioP1;P1;durP2;ratioP2;P2;SDS_P1;SDS_P2;PMS_P1;PMS_P2;Temp;Humidity;BMP_temperature;BMP_pressure;BME280_temperature;BME280_humidity;BME280_pressure;Samples;Min_cycle;Max_cycle;Signal;HPM_P1;HPM_P2
2022/12/25 00:03:15;;;;;;;;;;;7.50;90.90;;;;;;5032234;28;20039;-77
2022/12/25 00:05:41;;;;;;;;;;;7.50;90.90;;;;;;5034192;28;20592;-78
2022/12/25 00:08:06;;;;;;;;;;;7.50;91.00;;;;;;5033392;28;20016;-79
2022/12/25 00:10:32;;;;;;;;;;;7.50;90.90;;;;;;5051009;28;19932;-79
2022/12/25 00:12:57;;;;;;;;;;;7.50;90.90;;;;;;5036335;28;19925;-78
2022/12/25 00:15:22;;;;;;;;;;;7.50;90.90;;;;;;5036557;28;19920;-78
2022/12/25 00:17:48;;;;;;;;;;;7.50;90.90;;;;;;5022652;28;20004;-78
2022/12/25 00:20:13;;;;;;;;;;;7.50;90.90;;;;;;5038330;28;19928;-78
2022/12/25 00:22:39;;;;;;;;;;;7.50;91.00;;;;;;5039575;28;19921;-78
2022/12/25 00:25:04;;;;;;;;;;;7.50;91.00;;;;;;5038546;28;19920;-78
2022/12/25 00:27:31;;;;;;;;;;;7.50;91.00;;;;;;5038894;28;19920;-78
2022/12/25 00:29:57;;;;;;;;;;;7.50;91.00;;;;;;5038090;28;19921;-79
2022/12/25 00:32:22;;;;;;;;;;;7.50;91.00;;;;;;5036279;28;19921;-78
2022/12/25 00:34:47;;;;;;;;;;;7.50;91.00;;;;;;5037419;28;19925;-78
2022/12/25 00:37:13;;;;;;;;;;;7.50;91.00;;;;;;5036635;28;19928;-78
2022/12/25 00:39:39;;;;;;;;;;;7.40;91.00;;;;;;5038229;28;20187;-78
2022/12/25 00:42:19;;;;;;;;;;;7.40;91.00;;;;;;5038784;28;19921;-79
2022/12/25 00:44:45;;;;;;;;;;;7.40;91.00;;;;;;5039122;28;19928;-79
2022/12/25 00:47:11;;;;;;;;;;;7.40;91.00;;;;;;5040334;28;19925;-79
2022/12/25 00:49:36;;;;;;;;;;;7.40;91.00;;;;;;5037839;28;20292;-78
2022/12/25 00:52:02;;;;;;;;;;;7.40;91.00;;;;;;5041171;28;19956;-79
2022/12/25 00:54:27;;;;;;;;;;;7.40;91.00;;;;;;5039559;28;19933;-77
2022/12/25 00:56:53;;;;;;;;;;;7.40;91.00;;;;;;5038301;28;20719;-78
2022/12/25 00:59:18;;;;;;;;;;;7.40;91.00;;;;;;5036448;28;19920;-76
2022/12/25 01:01:43;;;;;;;;;;;7.40;91.00;;;;;;5017866;28;20369;-77
2022/12/25 01:04:09;;;;;;;;;;;7.40;91.00;;;;;;5019842;28;19935;-75
2022/12/25 01:06:35;;;;;;;;;;;7.40;91.00;;;;;;5033940;28;19917;-77
2022/12/25 01:11:44;;;;;;;;;;;7.40;91.00;;;;;;5031310;28;20028;-78
2022/12/25 01:14:13;;;;;;;;;;;7.40;91.00;;;;;;5033251;28;19924;-75
2022/12/25 01:16:39;;;;;;;;;;;7.40;91.00;;;;;;5016665;28;19932;-76
2022/12/25 01:19:04;;;;;;;;;;;7.40;91.00;;;;;;5034687;28;19920;-76
2022/12/25 01:21:29;;;;;;;;;;;7.40;91.00;;;;;;5032176;28;20008;-76
2022/12/25 01:23:55;;;;;;;;;;;7.40;91.00;;;;;;5036162;28;19947;-76
2022/12/25 01:26:21;;;;;;;;;;;7.40;91.00;;;;;;5026943;28;20363;-76
2022/12/25 01:28:47;;;;;;;;;;;7.40;91.00;;;;;;5045965;28;19920;-78
2022/12/25 01:31:14;;;;;;;;;;;7.40;91.00;;;;;;5037763;28;19935;-78
2022/12/25 01:33:40;;;;;;;;;;;7.40;91.00;;;;;;5018581;28;19939;-77
2022/12/25 01:36:15;;;;;;;;;;;7.40;91.00;;;;;;5035433;28;19921;-77
2022/12/25 01:38:40;;;;;;;;;;;7.40;91.00;;;;;;5048513;28;19960;-76
2022/12/25 01:41:06;;;;;;;;;;;7.40;91.00;;;;;;5035399;28;20005;-76
2022/12/25 01:43:31;;;;;;;;;;;7.40;91.00;;;;;;5018515;28;19994;-78
2022/12/25 01:45:57;;;;;;;;;;;7.40;91.00;;;;;;5037894;28;19928;-77
2022/12/25 01:48:33;;;;;;;;;;;7.40;91.00;;;;;;5032113;28;19925;-77
2022/12/25 01:51:02;;;;;;;;;;;7.40;91.00;;;;;;5029480;28;20402;-77
2022/12/25 01:53:28;;;;;;;;;;;7.40;91.00;;;;;;5047389;28;19925;-75
2022/12/25 01:55:55;;;;;;;;;;;7.40;91.00;;;;;;5036895;28;20566;-77
2022/12/25 01:58:20;;;;;;;;;;;7.40;91.00;;;;;;5034403;28;20003;-75
2022/12/25 02:00:46;;;;;;;;;;;7.40;91.00;;;;;;5047957;28;19946;-77
2022/12/25 02:03:11;;;;;;;;;;;7.30;91.00;;;;;;5030866;28;20774;-76
2022/12/25 02:05:37;;;;;;;;;;;7.30;91.00;;;;;;5033168;28;19925;-77
2022/12/25 02:08:08;;;;;;;;;;;7.30;91.00;;;;;;5034362;28;19920;-77
2022/12/25 02:10:33;;;;;;;;;;;7.30;91.00;;;;;;5033265;28;19929;-76
2022/12/25 02:12:59;;;;;;;;;;;7.30;91.00;;;;;;5036708;28;19924;-77
2022/12/25 02:15:26;;;;;;;;;;;7.30;91.00;;;;;;5018926;28;19944;-77
2022/12/25 02:17:55;;;;;;;;;;;7.20;91.00;;;;;;5035611;28;20458;-75
2022/12/25 02:20:23;;;;;;;;;;;7.20;91.00;;;;;;5036837;28;19951;-77
2022/12/25 02:22:56;;;;;;;;;;;7.20;91.00;;;;;;5049471;28;20357;-78
2022/12/25 02:25:21;;;;;;;;;;;7.20;91.00;;;;;;5032794;28;19976;-77
2022/12/25 02:28:00;;;;;;;;;;;7.20;91.00;;;;;;5031967;28;19924;-77
2022/12/25 02:30:25;;;;;;;;;;;7.20;91.00;;;;;;5034218;28;19920;-77
2022/12/25 02:35:45;;;;;;;;;;;7.20;91.00;;;;;;5046937;28;19960;-77
2022/12/25 02:38:12;;;;;;;;;;;7.10;91.00;;;;;;5037628;28;19953;-76
2022/12/25 02:40:39;;;;;;;;;;;7.10;91.00;;;;;;5034956;28;19924;-78
2022/12/25 03:07:56;;;;;;;;;;;6.80;91.00;;;;;;5033843;28;19970;-78
2022/12/25 03:13:09;;;;;;;;;;;6.80;91.10;;;;;;5035278;28;19936;-77
2022/12/25 03:18:21;;;;;;;;;;;6.70;91.00;;;;;;5045281;28;20718;-77
2022/12/25 03:28:59;;;;;;;;;;;6.50;91.00;;;;;;5047381;28;19928;-77
2022/12/25 03:31:28;;;;;;;;;;;6.50;91.00;;;;;;5030829;28;19920;-77
2022/12/25 03:36:42;;;;;;;;;;;6.40;91.10;;;;;;5034032;28;19955;-78
2022/12/25 04:37:08;;;;;;;;;;;6.00;91.30;;;;;;5036779;28;19927;-76
2022/12/25 04:39:33;;;;;;;;;;;6.00;91.30;;;;;;5022400;28;19921;-78
2022/12/25 04:41:59;;;;;;;;;;;6.00;91.30;;;;;;5024731;28;19920;-76
2022/12/25 04:44:25;;;;;;;;;;;6.00;91.30;;;;;;5036713;28;19928;-76
2022/12/25 04:46:50;;;;;;;;;;;6.00;91.30;;;;;;5037136;28;19924;-77
2022/12/25 04:49:16;;;;;;;;;;;5.90;91.30;;;;;;5052696;28;19955;-77
2022/12/25 04:51:41;;;;;;;;;;;5.90;91.30;;;;;;5037085;28;20287;-77
2022/12/25 04:54:07;;;;;;;;;;;5.90;91.30;;;;;;5039749;28;19928;-77
2022/12/25 04:56:32;;;;;;;;;;;5.90;91.30;;;;;;5037977;28;19928;-76
2022/12/25 04:58:58;;;;;;;;;;;5.90;91.30;;;;;;5041945;28;20404;-77
2022/12/25 05:01:23;;;;;;;;;;;5.90;91.40;;;;;;5038946;28;19921;-77
2022/12/25 05:03:49;;;;;;;;;;;5.90;91.40;;;;;;5021640;28;19990;-76
2022/12/25 05:06:14;;;;;;;;;;;5.90;91.40;;;;;;5022974;28;19921;-78
2022/12/25 05:08:39;;;;;;;;;;;5.90;91.40;;;;;;5040289;28;19956;-77
2022/12/25 05:11:06;;;;;;;;;;;5.90;91.40;;;;;;5041051;28;20437;-78
2022/12/25 05:13:31;;;;;;;;;;;5.90;91.40;;;;;;5037061;28;20896;-76
2022/12/25 05:15:57;;;;;;;;;;;5.90;91.40;;;;;;5057312;28;19925;-77
2022/12/25 05:18:22;;;;;;;;;;;5.90;91.40;;;;;;5053074;28;20323;-76
2022/12/25 05:20:54;;;;;;;;;;;5.90;91.40;;;;;;5018926;28;19976;-77
2022/12/25 05:23:19;;;;;;;;;;;5.90;91.70;;;;;;5036925;28;19927;-76
2022/12/25 05:25:45;;;;;;;;;;;5.90;91.40;;;;;;5032585;28;19924;-77
2022/12/25 05:28:10;;;;;;;;;;;5.90;91.40;;;;;;5035278;28;20447;-77
2022/12/25 05:30:36;;;;;;;;;;;5.90;91.40;;;;;;5033429;28;19925;-75
2022/12/25 05:33:01;;;;;;;;;;;5.90;91.40;;;;;;5033344;28;19974;-77
2022/12/25 05:35:27;;;;;;;;;;;5.90;91.40;;;;;;5037291;28;19931;-78
2022/12/25 05:37:52;;;;;;;;;;;5.90;91.40;;;;;;5032582;28;20466;-77
2022/12/25 05:40:17;;;;;;;;;;;5.90;91.40;;;;;;5016109;28;19931;-77
2022/12/25 05:42:43;;;;;;;;;;;6.00;91.40;;;;;;5033912;28;19928;-77
2022/12/25 05:45:09;;;;;;;;;;;6.00;91.40;;;;;;5017100;28;19921;-76
2022/12/25 05:47:34;;;;;;;;;;;6.00;91.40;;;;;;5035951;28;19921;-75
2022/12/25 05:50:00;;;;;;;;;;;6.00;91.40;;;;;;5034703;28;19925;-76
2022/12/25 05:52:25;;;;;;;;;;;6.00;91.40;;;;;;5018851;28;20426;-76
2022/12/25 05:54:50;;;;;;;;;;;6.00;91.40;;;;;;5034677;28;19936;-77
2022/12/25 05:57:16;;;;;;;;;;;6.00;91.40;;;;;;5034885;28;20662;-76
2022/12/25 05:59:41;;;;;;;;;;;6.00;91.40;;;;;;5034598;28;19928;-77
2022/12/25 06:02:07;;;;;;;;;;;6.00;91.40;;;;;;5020800;28;19924;-78
2022/12/25 06:04:32;;;;;;;;;;;6.00;91.40;;;;;;5032278;28;20599;-76
2022/12/25 06:06:58;;;;;;;;;;;6.00;91.40;;;;;;5049056;28;19975;-77
2022/12/25 06:09:23;;;;;;;;;;;6.00;91.30;;;;;;5033800;28;19921;-77
2022/12/25 06:11:49;;;;;;;;;;;6.00;91.70;;;;;;5034495;28;19932;-77
2022/12/25 06:14:15;;;;;;;;;;;6.00;91.40;;;;;;5038293;28;19951;-78
2022/12/25 06:16:40;;;;;;;;;;;6.10;91.40;;;;;;5036842;28;19921;-77
2022/12/25 06:19:06;;;;;;;;;;;6.10;91.40;;;;;;5020914;28;19925;-77
2022/12/25 06:21:31;;;;;;;;;;;6.10;91.40;;;;;;5019415;28;19921;-77
2022/12/25 06:24:00;;;;;;;;;;;6.10;91.40;;;;;;5036013;28;20479;-76
2022/12/25 06:26:25;;;;;;;;;;;6.10;91.30;;;;;;5017468;28;19927;-75
2022/12/25 06:28:51;;;;;;;;;;;6.10;91.30;;;;;;5034857;28;19924;-77
2022/12/25 06:31:17;;;;;;;;;;;6.10;91.30;;;;;;5049377;28;19996;-77
2022/12/25 06:33:43;;;;;;;;;;;6.10;91.40;;;;;;5036194;28;19925;-77
2022/12/25 06:36:12;;;;;;;;;;;6.10;91.30;;;;;;5018482;28;19932;-77
2022/12/25 06:38:38;;;;;;;;;;;6.10;91.40;;;;;;5049095;28;19928;-72
2022/12/25 06:41:07;;;;;;;;;;;6.10;91.40;;;;;;5036479;28;20491;-77
2022/12/25 06:43:32;;;;;;;;;;;6.10;91.40;;;;;;5046989;28;19978;-76
2022/12/25 06:46:02;;;;;;;;;;;6.10;91.30;;;;;;5032870;28;19924;-77
2022/12/25 06:48:27;;;;;;;;;;;6.10;91.30;;;;;;5017283;28;19955;-75
2022/12/25 06:50:53;;;;;;;;;;;6.10;91.30;;;;;;5032592;28;20387;-76
2022/12/25 06:53:18;;;;;;;;;;;6.10;91.30;;;;;;5046006;28;20015;-77
2022/12/25 06:55:44;;;;;;;;;;;6.10;91.40;;;;;;5034340;28;19927;-78
2022/12/25 06:58:09;;;;;;;;;;;6.10;91.30;;;;;;5037244;28;19927;-77
2022/12/25 07:00:35;;;;;;;;;;;6.10;91.30;;;;;;5034033;28;19917;-78
2022/12/25 07:03:00;;;;;;;;;;;6.00;91.30;;;;;;5036958;28;19924;-77
2022/12/25 07:05:26;;;;;;;;;;;6.10;91.40;;;;;;5036998;28;19920;-78
2022/12/25 07:07:51;;;;;;;;;;;6.00;91.30;;;;;;5031441;28;19968;-77
2022/12/25 07:10:16;;;;;;;;;;;6.00;91.30;;;;;;5035747;28;19917;-78
2022/12/25 07:12:42;;;;;;;;;;;6.00;91.30;;;;;;5034324;28;19916;-77
2022/12/25 07:15:08;;;;;;;;;;;6.00;91.70;;;;;;5035873;28;19924;-78
2022/12/25 07:17:33;;;;;;;;;;;5.90;91.40;;;;;;5032849;28;20298;-77
2022/12/25 07:19:59;;;;;;;;;;;5.90;91.30;;;;;;5034833;28;19924;-78
2022/12/25 07:22:24;;;;;;;;;;;5.90;91.40;;;;;;5051661;28;19924;-77
2022/12/25 07:24:49;;;;;;;;;;;5.90;91.40;;;;;;5033400;28;20349;-77
2022/12/25 07:27:15;;;;;;;;;;;5.90;91.40;;;;;;5034565;28;19967;-77
2022/12/25 07:29:40;;;;;;;;;;;5.90;91.40;;;;;;5035884;28;19999;-77
2022/12/25 07:32:06;;;;;;;;;;;5.90;91.40;;;;;;5034974;28;19928;-79
2022/12/25 07:34:31;;;;;;;;;;;5.90;91.40;;;;;;5032900;28;19929;-78
2022/12/25 07:36:57;;;;;;;;;;;5.90;91.40;;;;;;5020233;28;19921;-78
2022/12/25 07:39:22;;;;;;;;;;;5.90;91.40;;;;;;5031995;28;19944;-77
2022/12/25 07:41:48;;;;;;;;;;;5.90;91.40;;;;;;5030420;28;20306;-78
2022/12/25 07:44:13;;;;;;;;;;;5.90;91.40;;;;;;5032524;28;19920;-78
2022/12/25 07:46:39;;;;;;;;;;;5.90;91.40;;;;;;5029938;28;19925;-72
2022/12/25 07:49:04;;;;;;;;;;;5.90;91.40;;;;;;5033761;28;20038;-75
2022/12/25 07:51:30;;;;;;;;;;;5.90;91.40;;;;;;5039816;28;19927;-77
2022/12/25 07:53:55;;;;;;;;;;;5.90;91.40;;;;;;5013361;28;19925;-71
2022/12/25 07:56:21;;;;;;;;;;;5.90;91.40;;;;;;5030494;28;19920;-77
2022/12/25 07:58:47;;;;;;;;;;;5.90;91.40;;;;;;5013320;28;19929;-77
2022/12/25 08:01:12;;;;;;;;;;;5.90;91.70;;;;;;5044678;28;20054;-77
2022/12/25 08:03:38;;;;;;;;;;;5.90;91.40;;;;;;5036553;28;20007;-78
2022/12/25 08:06:04;;;;;;;;;;;5.90;91.40;;;;;;5018441;28;19917;-78
2022/12/25 08:08:30;;;;;;;;;;;5.90;91.40;;;;;;5032484;28;19924;-79
2022/12/25 08:10:55;;;;;;;;;;;5.90;91.40;;;;;;4972335;28;1795065;-79
2022/12/25 08:13:21;;;;;;;;;;;5.90;91.40;;;;;;5033257;28;20724;-78
2022/12/25 08:15:46;;;;;;;;;;;5.90;91.40;;;;;;5046748;28;20016;-78
2022/12/25 08:18:11;;;;;;;;;;;6.00;91.40;;;;;;5035214;28;19924;-79
2022/12/25 08:20:37;;;;;;;;;;;6.00;91.40;;;;;;5034975;28;19967;-77
2022/12/25 08:23:02;;;;;;;;;;;6.00;91.40;;;;;;5035240;28;20079;-79
2022/12/25 08:25:28;;;;;;;;;;;6.00;91.40;;;;;;5049481;28;20355;-77
2022/12/25 08:27:53;;;;;;;;;;;6.00;91.40;;;;;;5032582;28;20012;-77
2022/12/25 08:30:19;;;;;;;;;;;6.00;91.40;;;;;;5031860;28;19925;-78
2022/12/25 08:32:44;;;;;;;;;;;6.10;91.40;;;;;;5029972;28;19971;-78
2022/12/25 08:35:10;;;;;;;;;;;6.10;91.40;;;;;;5048916;28;20310;-77
2022/12/25 08:37:35;;;;;;;;;;;6.10;91.40;;;;;;5033347;28;19952;-77
2022/12/25 08:40:01;;;;;;;;;;;6.10;91.40;;;;;;5032911;28;19924;-77
2022/12/25 08:42:26;;;;;;;;;;;6.20;91.40;;;;;;5033189;28;19927;-78
2022/12/25 08:44:52;;;;;;;;;;;6.20;91.40;;;;;;5033398;28;19964;-78
2022/12/25 08:47:17;;;;;;;;;;;6.30;91.40;;;;;;5032843;28;19979;-78
2022/12/25 08:49:42;;;;;;;;;;;6.30;91.40;;;;;;5031393;28;19921;-78
2022/12/25 08:52:08;;;;;;;;;;;6.30;91.40;;;;;;5018799;28;20434;-78
2022/12/25 08:54:35;;;;;;;;;;;6.40;91.40;;;;;;5032207;28;19983;-74
2022/12/25 08:57:01;;;;;;;;;;;6.40;91.40;;;;;;5031391;28;19921;-78
2022/12/25 08:59:26;;;;;;;;;;;6.40;91.40;;;;;;5033939;28;20054;-78
2022/12/25 09:01:52;;;;;;;;;;;6.40;91.40;;;;;;5036340;28;20306;-78
2022/12/25 09:04:17;;;;;;;;;;;6.40;91.40;;;;;;5036882;28;19951;-78
2022/12/25 09:06:42;;;;;;;;;;;6.50;91.40;;;;;;5025275;28;19924;-77
2022/12/25 09:09:08;;;;;;;;;;;6.50;91.30;;;;;;5048990;28;20554;-78
2022/12/25 09:11:33;;;;;;;;;;;6.50;91.30;;;;;;5020218;28;20008;-78
2022/12/25 09:13:59;;;;;;;;;;;6.60;91.40;;;;;;5053507;28;19924;-78
2022/12/25 09:16:24;;;;;;;;;;;6.60;91.40;;;;;;5051940;28;20439;-78
2022/12/25 09:18:50;;;;;;;;;;;6.70;91.40;;;;;;5034692;28;19917;-78
2022/12/25 09:21:15;;;;;;;;;;;6.70;91.40;;;;;;5034956;28;19921;-78
2022/12/25 09:23:41;;;;;;;;;;;6.70;91.40;;;;;;5038213;28;19991;-78
2022/12/25 09:26:07;;;;;;;;;;;6.80;91.30;;;;;;5036093;28;19921;-76
2022/12/25 09:28:32;;;;;;;;;;;6.90;91.30;;;;;;5037860;28;19928;-77
2022/12/25 09:30:58;;;;;;;;;;;6.90;91.30;;;;;;5035050;28;20303;-78
2022/12/25 09:33:23;;;;;;;;;;;7.00;91.40;;;;;;5053096;28;19929;-77
2022/12/25 09:35:55;;;;;;;;;;;7.00;91.30;;;;;;5033865;28;20454;-78
2022/12/25 09:38:21;;;;;;;;;;;7.00;91.30;;;;;;5031684;28;19928;-78
2022/12/25 09:40:46;;;;;;;;;;;7.10;91.20;;;;;;5036650;28;19920;-77
2022/12/25 09:43:14;;;;;;;;;;;7.10;91.20;;;;;;5038993;28;20292;-77
2022/12/25 09:45:41;;;;;;;;;;;7.20;91.20;;;;;;5036782;28;19921;-78
2022/12/25 09:48:08;;;;;;;;;;;7.20;91.20;;;;;;5037655;28;20918;-78
2022/12/25 09:50:37;;;;;;;;;;;7.30;91.20;;;;;;5034292;28;19925;-75
2022/12/25 09:53:10;;;;;;;;;;;7.30;91.20;;;;;;5037113;28;19920;-77
2022/12/25 09:55:37;;;;;;;;;;;7.30;91.20;;;;;;5034964;28;19936;-75
2022/12/25 09:58:07;;;;;;;;;;;7.30;91.20;;;;;;5029191;28;19917;-78
2022/12/25 10:00:53;;;;;;;;;;;7.40;91.20;;;;;;5046457;28;20035;-78
2022/12/25 10:03:36;;;;;;;;;;;7.40;91.20;;;;;;5036044;28;19921;-77
2022/12/25 10:06:03;;;;;;;;;;;7.40;91.20;;;;;;5035836;28;19974;-77
2022/12/25 10:08:47;;;;;;;;;;;7.50;91.20;;;;;;5034482;28;20459;-77
2022/12/25 10:11:31;;;;;;;;;;;7.50;91.20;;;;;;5030867;28;20387;-78
2022/12/25 10:14:12;;;;;;;;;;;7.50;91.20;;;;;;5040881;28;19928;-78
2022/12/25 10:16:38;;;;;;;;;;;7.50;91.20;;;;;;5046142;28;19917;-78
2022/12/25 10:19:06;;;;;;;;;;;7.60;91.10;;;;;;5035724;28;19925;-77
2022/12/25 10:21:31;;;;;;;;;;;7.60;91.10;;;;;;5033045;28;19959;-77
2022/12/25 10:23:57;;;;;;;;;;;7.60;91.10;;;;;;5036188;28;20729;-78
2022/12/25 10:26:24;;;;;;;;;;;7.70;91.10;;;;;;5036882;28;19921;-78
2022/12/25 10:29:08;;;;;;;;;;;7.70;91.10;;;;;;5017468;28;19925;-76
2022/12/25 10:31:34;;;;;;;;;;;7.70;91.10;;;;;;5032775;28;19925;-77
2022/12/25 10:33:59;;;;;;;;;;;7.80;91.10;;;;;;5031999;28;20389;-77
2022/12/25 10:36:25;;;;;;;;;;;7.80;91.10;;;;;;5048834;28;20313;-77
2022/12/25 10:38:51;;;;;;;;;;;7.80;91.00;;;;;;5032177;28;20011;-76
2022/12/25 10:41:26;;;;;;;;;;;7.80;91.00;;;;;;5049953;28;20458;-78
2022/12/25 10:43:52;;;;;;;;;;;7.90;91.10;;;;;;5031914;28;19924;-77
2022/12/25 10:46:18;;;;;;;;;;;8.00;91.10;;;;;;5034063;28;19920;-77
2022/12/25 10:49:01;;;;;;;;;;;8.00;91.10;;;;;;5032324;28;19929;-78
2022/12/25 10:51:29;;;;;;;;;;;8.00;91.00;;;;;;5004619;28;19920;-78
2022/12/25 10:53:55;;;;;;;;;;;8.10;91.10;;;;;;5033822;28;19925;-78
2022/12/25 10:56:21;;;;;;;;;;;8.20;91.10;;;;;;5017847;28;19972;-77
2022/12/25 10:58:46;;;;;;;;;;;8.20;91.00;;;;;;5031396;28;20555;-73
2022/12/25 11:01:12;;;;;;;;;;;8.30;91.10;;;;;;5014820;28;19963;-70
2022/12/25 11:03:40;;;;;;;;;;;8.40;91.00;;;;;;5035511;28;19921;-78
2022/12/25 11:06:06;;;;;;;;;;;8.50;91.00;;;;;;5032003;28;19968;-78
2022/12/25 11:08:33;;;;;;;;;;;8.50;91.00;;;;;;5033889;28;19967;-78
2022/12/25 11:11:04;;;;;;;;;;;8.60;91.00;;;;;;5029227;28;19925;-76
2022/12/25 11:13:31;;;;;;;;;;;8.70;90.90;;;;;;5032744;28;19964;-77
2022/12/25 11:16:03;;;;;;;;;;;8.80;90.90;;;;;;5032892;28;19920;-76
2022/12/25 11:18:33;;;;;;;;;;;8.80;90.90;;;;;;5033656;28;19924;-77
2022/12/25 11:21:03;;;;;;;;;;;8.90;90.90;;;;;;5006077;28;19925;-78
2022/12/25 11:23:29;;;;;;;;;;;8.90;90.80;;;;;;5046995;28;19932;-76
2022/12/25 11:25:55;;;;;;;;;;;9.00;90.80;;;;;;5033552;28;19921;-78
2022/12/25 11:28:20;;;;;;;;;;;9.00;90.90;;;;;;5050479;28;20306;-78
2022/12/25 11:30:48;;;;;;;;;;;9.10;90.90;;;;;;5039838;28;19969;-78
2022/12/25 11:33:13;;;;;;;;;;;9.20;90.80;;;;;;5017798;28;20079;-79
2022/12/25 11:35:44;;;;;;;;;;;9.20;90.80;;;;;;5032753;28;20320;-77
2022/12/25 11:38:10;;;;;;;;;;;9.30;90.80;;;;;;5032911;28;19928;-77
2022/12/25 11:40:39;;;;;;;;;;;9.30;90.70;;;;;;5035038;28;19969;-79
2022/12/25 11:43:17;;;;;;;;;;;9.40;90.80;;;;;;5034235;28;19925;-78
2022/12/25 11:45:52;;;;;;;;;;;9.50;90.70;;;;;;5018999;28;19967;-78
2022/12/25 11:48:19;;;;;;;;;;;9.50;90.70;;;;;;5033679;28;20007;-78
2022/12/25 11:50:48;;;;;;;;;;;9.50;90.60;;;;;;5034932;28;19921;-79
2022/12/25 11:53:18;;;;;;;;;;;9.60;90.60;;;;;;5036059;28;19991;-78
2022/12/25 11:55:44;;;;;;;;;;;9.60;90.60;;;;;;5017316;28;20008;-78
2022/12/25 11:58:19;;;;;;;;;;;9.60;90.60;;;;;;5033495;28;19956;-77
2022/12/25 12:00:45;;;;;;;;;;;9.70;90.70;;;;;;5031489;28;20062;-78
2022/12/25 12:03:27;;;;;;;;;;;9.70;90.70;;;;;;5018059;28;20369;-78
2022/12/25 12:06:07;;;;;;;;;;;9.70;90.60;;;;;;5050567;28;19925;-79
2022/12/25 12:08:33;;;;;;;;;;;9.70;90.60;;;;;;5034299;28;19917;-78
2022/12/25 12:11:16;;;;;;;;;;;9.80;90.60;;;;;;5033373;28;19929;-79
2022/12/25 12:14:00;;;;;;;;;;;9.80;90.60;;;;;;5048172;28;20303;-78
2022/12/25 12:16:26;;;;;;;;;;;9.80;90.60;;;;;;5035132;28;19921;-78
2022/12/25 12:18:51;;;;;;;;;;;9.80;90.60;;;;;;5019046;28;19925;-78
2022/12/25 12:21:19;;;;;;;;;;;9.80;90.60;;;;;;5031035;28;20306;-78
2022/12/25 12:24:00;;;;;;;;;;;9.90;90.60;;;;;;5035059;28;19928;-78
2022/12/25 12:26:26;;;;;;;;;;;9.90;90.60;;;;;;5035535;28;19963;-78
2022/12/25 12:28:52;;;;;;;;;;;9.90;90.50;;;;;;5049253;28;19959;-78
2022/12/25 12:31:17;;;;;;;;;;;9.90;90.50;;;;;;5048639;28;19960;-79
2022/12/25 12:33:48;;;;;;;;;;;9.90;90.50;;;;;;5033947;28;20016;-78
2022/12/25 12:36:13;;;;;;;;;;;9.90;90.50;;;;;;5037362;28;19959;-77
2022/12/25 12:38:40;;;;;;;;;;;9.90;90.50;;;;;;5036600;28;19921;-77
2022/12/25 12:41:06;;;;;;;;;;;9.90;90.50;;;;;;5037582;28;19921;-78
2022/12/25 12:43:38;;;;;;;;;;;9.90;90.50;;;;;;5034492;28;19951;-78
2022/12/25 12:46:06;;;;;;;;;;;9.90;90.50;;;;;;5037581;28;20003;-78
2022/12/25 12:48:39;;;;;;;;;;;10.00;90.60;;;;;;5037862;28;20745;-78
2022/12/25 12:51:05;;;;;;;;;;;10.00;90.60;;;;;;5036306;28;20371;-77
2022/12/25 12:53:31;;;;;;;;;;;10.00;90.50;;;;;;5033386;28;20387;-77
2022/12/25 12:56:07;;;;;;;;;;;10.00;90.60;;;;;;5020304;28;19921;-78
2022/12/25 12:58:33;;;;;;;;;;;10.10;90.60;;;;;;5018036;28;20004;-78
2022/12/25 13:01:05;;;;;;;;;;;10.10;90.60;;;;;;5035444;28;19939;-76
2022/12/25 13:03:32;;;;;;;;;;;10.10;90.50;;;;;;5036781;28;19928;-78
2022/12/25 13:06:06;;;;;;;;;;;10.10;90.60;;;;;;5034975;28;19921;-76
2022/12/25 13:08:51;;;;;;;;;;;10.20;90.50;;;;;;5032841;28;19920;-78
2022/12/25 13:11:20;;;;;;;;;;;10.30;90.50;;;;;;5048830;28;19998;-78
2022/12/25 13:13:46;;;;;;;;;;;10.30;90.50;;;;;;5029540;28;19932;-77
2022/12/25 13:16:22;;;;;;;;;;;10.40;90.50;;;;;;5032402;28;19921;-78
2022/12/25 13:18:48;;;;;;;;;;;10.40;90.50;;;;;;5031758;28;20495;-78
2022/12/25 13:21:15;;;;;;;;;;;10.50;90.50;;;;;;5045561;28;19974;-77
2022/12/25 13:23:41;;;;;;;;;;;10.60;90.60;;;;;;5047683;28;20007;-78
2022/12/25 13:26:10;;;;;;;;;;;10.80;90.70;;;;;;5034484;28;20055;-78
2022/12/25 13:28:36;;;;;;;;;;;10.90;90.70;;;;;;5031545;28;19921;-78
2022/12/25 13:31:02;;;;;;;;;;;11.10;90.70;;;;;;5051316;28;19932;-78
2022/12/25 13:33:28;;;;;;;;;;;11.30;90.70;;;;;;5020058;28;19931;-78
2022/12/25 13:35:53;;;;;;;;;;;11.50;90.60;;;;;;5050990;28;19921;-78
2022/12/25 13:38:18;;;;;;;;;;;11.60;90.50;;;;;;5050779;28;19947;-79
2022/12/25 13:42:04;;;;;;;;;;;11.70;90.50;;;;;;5018507;28;19921;-78
2022/12/25 13:43:36;;;;;;;;;;;11.80;90.40;;;;;;5046186;28;20010;-79
2022/12/25 13:46:02;;;;;;;;;;;11.90;90.30;;;;;;5034018;28;19921;-79
2022/12/25 13:48:27;;;;;;;;;;;12.00;90.30;;;;;;5033086;28;20405;-78
2022/12/25 13:50:57;;;;;;;;;;;12.00;90.30;;;;;;5037394;28;19920;-79
2022/12/25 13:53:22;;;;;;;;;;;12.10;90.20;;;;;;5048359;28;20003;-79
2022/12/25 13:55:49;;;;;;;;;;;12.10;90.20;;;;;;5036547;28;21249;-79
2022/12/25 13:58:17;;;;;;;;;;;12.10;90.10;;;;;;5035359;28;19921;-79
2022/12/25 14:00:42;;;;;;;;;;;12.00;90.10;;;;;;5035882;28;20685;-79
2022/12/25 14:03:12;;;;;;;;;;;12.00;90.00;;;;;;5036886;28;19920;-77
2022/12/25 14:05:38;;;;;;;;;;;11.90;90.00;;;;;;5048114;28;19925;-78
2022/12/25 14:08:11;;;;;;;;;;;11.80;90.00;;;;;;5038011;28;19921;-78
2022/12/25 14:10:36;;;;;;;;;;;11.80;90.10;;;;;;5036024;28;19929;-79
2022/12/25 14:13:06;;;;;;;;;;;11.80;90.10;;;;;;5034079;28;19931;-76
2022/12/25 14:15:32;;;;;;;;;;;11.70;90.00;;;;;;5029660;28;19921;-78
2022/12/25 14:17:57;;;;;;;;;;;11.70;90.10;;;;;;5036850;28;19932;-79
2022/12/25 14:20:29;;;;;;;;;;;11.60;90.10;;;;;;5035443;28;19925;-78
2022/12/25 14:22:55;;;;;;;;;;;11.60;90.10;;;;;;5036394;28;19921;-78
2022/12/25 14:25:21;;;;;;;;;;;11.50;90.10;;;;;;5032956;28;19928;-79
2022/12/25 14:27:47;;;;;;;;;;;11.50;90.10;;;;;;5017011;28;20003;-79
2022/12/25 14:30:13;;;;;;;;;;;11.40;90.10;;;;;;5017224;28;20058;-78
2022/12/25 14:32:39;;;;;;;;;;;11.40;90.10;;;;;;5018751;28;19927;-78
2022/12/25 14:35:05;;;;;;;;;;;11.40;90.10;;;;;;5048314;28;19975;-77
2022/12/25 14:37:30;;;;;;;;;;;11.30;90.10;;;;;;5017423;28;19921;-77
2022/12/25 14:39:57;;;;;;;;;;;11.30;90.10;;;;;;5035983;28;19924;-77
2022/12/25 14:42:23;;;;;;;;;;;11.30;90.10;;;;;;5051210;28;19920;-78
2022/12/25 14:45:02;;;;;;;;;;;11.20;90.10;;;;;;5030274;28;19931;-79
2022/12/25 14:47:28;;;;;;;;;;;11.20;90.10;;;;;;5034361;28;19920;-78
2022/12/25 14:49:53;;;;;;;;;;;11.20;90.20;;;;;;5034741;28;20465;-77
2022/12/25 14:52:21;;;;;;;;;;;11.10;90.10;;;;;;5035024;28;19921;-78
2022/12/25 14:54:48;;;;;;;;;;;11.10;90.10;;;;;;5034095;28;19936;-79
2022/12/25 14:57:18;;;;;;;;;;;11.00;90.20;;;;;;5048590;28;19952;-78
2022/12/25 14:59:44;;;;;;;;;;;10.90;90.20;;;;;;5033366;28;20312;-78
2022/12/25 15:02:10;;;;;;;;;;;10.90;90.20;;;;;;5018549;28;19921;-78
2022/12/25 15:04:35;;;;;;;;;;;10.80;90.20;;;;;;5035767;28;19966;-79
2022/12/25 15:07:07;;;;;;;;;;;10.80;90.20;;;;;;5034452;28;19921;-79
2022/12/25 15:09:32;;;;;;;;;;;10.70;90.20;;;;;;5033696;28;19993;-78
2022/12/25 15:11:58;;;;;;;;;;;10.70;90.30;;;;;;5035259;28;19932;-78
2022/12/25 15:14:24;;;;;;;;;;;10.60;90.30;;;;;;5048688;28;20006;-79
2022/12/25 15:16:50;;;;;;;;;;;10.60;90.30;;;;;;5032195;28;19956;-79
2022/12/25 15:19:22;;;;;;;;;;;10.50;90.30;;;;;;5017067;28;19928;-78
2022/12/25 15:21:47;;;;;;;;;;;10.50;90.30;;;;;;5029874;28;19935;-78
2022/12/25 15:24:13;;;;;;;;;;;10.40;90.30;;;;;;5032210;28;20311;-78
2022/12/25 15:26:38;;;;;;;;;;;10.40;90.30;;;;;;5049534;28;19929;-78
2022/12/25 15:29:05;;;;;;;;;;;10.30;90.30;;;;;;5035867;28;19920;-78
2022/12/25 15:31:31;;;;;;;;;;;10.30;90.30;;;;;;5032490;28;20066;-78
2022/12/25 15:33:59;;;;;;;;;;;10.20;90.40;;;;;;5051010;28;19932;-78
2022/12/25 15:36:25;;;;;;;;;;;10.20;90.70;;;;;;5032184;28;19964;-78
2022/12/25 15:38:50;;;;;;;;;;;10.10;90.40;;;;;;5033335;28;19967;-78
2022/12/25 15:44:00;;;;;;;;;;;10.00;90.40;;;;;;5035175;28;19927;-78
2022/12/25 15:46:26;;;;;;;;;;;10.00;90.40;;;;;;5035126;28;19921;-78
2022/12/25 15:48:51;;;;;;;;;;;10.00;90.40;;;;;;5032727;28;19986;-78
2022/12/25 15:51:17;;;;;;;;;;;9.90;90.40;;;;;;5034775;28;20322;-78
2022/12/25 15:53:42;;;;;;;;;;;9.90;90.40;;;;;;5016148;28;19932;-78
2022/12/25 15:56:08;;;;;;;;;;;9.80;90.40;;;;;;5032747;28;19925;-77
2022/12/25 15:58:34;;;;;;;;;;;9.80;90.50;;;;;;5030497;28;19952;-78
2022/12/25 16:00:59;;;;;;;;;;;9.80;90.50;;;;;;5011918;28;20382;-78
2022/12/25 16:03:25;;;;;;;;;;;9.70;90.50;;;;;;5030163;28;20387;-78
2022/12/25 16:05:50;;;;;;;;;;;9.70;90.50;;;;;;5032210;28;19927;-79
2022/12/25 16:08:16;;;;;;;;;;;9.60;90.50;;;;;;5029707;28;19952;-76
2022/12/25 16:10:41;;;;;;;;;;;9.60;90.50;;;;;;5031334;28;19936;-78
2022/12/25 16:13:07;;;;;;;;;;;9.60;90.50;;;;;;5032764;28;19928;-78
2022/12/25 16:15:32;;;;;;;;;;;9.50;90.50;;;;;;5032314;28;20008;-78